sensor_id;sensor_type;location;lat;lon;timestamp;P1;durP1;ratioP1;P2;durP2;ratioP2
49384;SDS011;36795;45.028;38.968;2023-02-28T00:02:18;19.75;;;5.70;;
49384;SDS011;36795;45.028;38.968;2023-02-28T00:05:04;18.90;;;6.25;;
49384;SDS011;36795;45.028;38.968;2023-02-28T00:07:51;16.77;;;5.62;;
49384;SDS011;36795;45.028;38.968;2023-02-28T00:10:37;18.08;;;6.25;;
49384;SDS011;36795;45.028;38.968;2023-02-28T00:13:23;20.50;;;5.85;;
49384;SDS011;36795;45.028;38.968;2023-02-28T00:16:11;21.25;;;6.40;;
49384;SDS011;36795;45.028;38.968;2023-02-28T00:18:57;21.92;;;6.47;;
49384;SDS011;36795;45.028;38.968;2023-02-28T00:21:44;20.35;;;6.28;;
49384;SDS011;36795;45.028;38.968;2023-02-28T00:24:30;21.33;;;6.78;;
49384;SDS011;36795;45.028;38.968;2023-02-28T00:27:17;21.00;;;6.20;;
49384;SDS011;36795;45.028;38.968;2023-02-28T00:30:05;23.42;;;6.90;;
49384;SDS011;36795;45.028;38.968;2023-02-28T00:32:52;19.67;;;6.25;;
49384;SDS011;36795;45.028;38.968;2023-02-28T00:35:38;26.80;;;8.07;;
49384;SDS011;36795;45.028;38.968;2023-02-28T00:38:27;26.67;;;7.12;;
49384;SDS011;36795;45.028;38.968;2023-02-28T00:41:13;27.85;;;6.18;;
49384;SDS011;36795;45.028;38.968;2023-02-28T00:44:00;23.15;;;6.43;;
49384;SDS011;36795;45.028;38.968;2023-02-28T00:46:46;20.70;;;5.90;;
49384;SDS011;36795;45.028;38.968;2023-02-28T00:49:32;22.40;;;7.05;;
49384;SDS011;36795;45.028;38.968;2023-02-28T00:52:20;22.50;;;7.25;;
49384;SDS011;36795;45.028;38.968;2023-02-28T00:55:06;25.52;;;7.00;;
49384;SDS011;36795;45.028;38.968;2023-02-28T00:57:52;23.35;;;6.28;;
49384;SDS011;36795;45.028;38.968;2023-02-28T01:00:43;20.77;;;6.55;;
49384;SDS011;36795;45.028;38.968;2023-02-28T01:03:33;22.20;;;5.80;;
49384;SDS011;36795;45.028;38.968;2023-02-28T01:06:19;19.95;;;6.15;;
49384;SDS011;36795;45.028;38.968;2023-02-28T01:09:06;21.27;;;6.28;;
49384;SDS011;36795;45.028;38.968;2023-02-28T01:11:52;19.48;;;7.35;;
49384;SDS011;36795;45.028;38.968;2023-02-28T01:14:38;18.87;;;6.10;;
49384;SDS011;36795;45.028;38.968;2023-02-28T01:17:24;19.40;;;5.72;;
49384;SDS011;36795;45.028;38.968;2023-02-28T01:20:11;19.02;;;5.50;;
49384;SDS011;36795;45.028;38.968;2023-02-28T01:22:57;19.95;;;6.60;;
49384;SDS011;36795;45.028;38.968;2023-02-28T01:25:43;22.17;;;6.43;;
49384;SDS011;36795;45.028;38.968;2023-02-28T01:28:30;22.25;;;6.53;;
49384;SDS011;36795;45.028;38.968;2023-02-28T01:31:16;22.13;;;5.90;;
49384;SDS011;36795;45.028;38.968;2023-02-28T01:34:03;22.95;;;8.07;;
49384;SDS011;36795;45.028;38.968;2023-02-28T01:36:49;20.25;;;6.43;;
49384;SDS011;36795;45.028;38.968;2023-02-28T01:39:37;21.77;;;6.70;;
49384;SDS011;36795;45.028;38.968;2023-02-28T01:42:23;21.30;;;6.75;;
49384;SDS011;36795;45.028;38.968;2023-02-28T01:45:20;19.10;;;6.28;;
49384;SDS011;36795;45.028;38.968;2023-02-28T01:48:07;19.48;;;6.65;;
49384;SDS011;36795;45.028;38.968;2023-02-28T01:50:55;22.02;;;6.47;;
49384;SDS011;36795;45.028;38.968;2023-02-28T01:53:47;22.35;;;6.70;;
49384;SDS011;36795;45.028;38.968;2023-02-28T01:56:36;20.58;;;6.75;;
49384;SDS011;36795;45.028;38.968;2023-02-28T01:59:25;21.75;;;6.60;;
49384;SDS011;36795;45.028;38.968;2023-02-28T02:02:13;19.95;;;6.85;;
49384;SDS011;36795;45.028;38.968;2023-02-28T02:05:03;20.45;;;6.37;;
49384;SDS011;36795;45.028;38.968;2023-02-28T02:07:50;23.33;;;7.00;;
49384;SDS011;36795;45.028;38.968;2023-02-28T02:10:42;29.20;;;6.75;;
49384;SDS011;36795;45.028;38.968;2023-02-28T02:16:44;26.67;;;6.62;;
49384;SDS011;36795;45.028;38.968;2023-02-28T02:22:21;19.75;;;6.00;;
49384;SDS011;36795;45.028;38.968;2023-02-28T02:37:27;24.48;;;6.35;;
49384;SDS011;36795;45.028;38.968;2023-02-28T02:40:42;23.23;;;6.35;;
49384;SDS011;36795;45.028;38.968;2023-02-28T02:43:29;23.20;;;5.97;;
49384;SDS011;36795;45.028;38.968;2023-02-28T02:49:06;29.48;;;8.13;;
49384;SDS011;36795;45.028;38.968;2023-02-28T02:51:56;25.00;;;5.90;;
49384;SDS011;36795;45.028;38.968;2023-02-28T02:54:45;21.75;;;6.55;;
49384;SDS011;36795;45.028;38.968;2023-02-28T02:57:45;28.08;;;6.32;;
49384;SDS011;36795;45.028;38.968;2023-02-28T03:00:33;34.72;;;7.85;;
49384;SDS011;36795;45.028;38.968;2023-02-28T03:03:20;28.05;;;7.25;;
49384;SDS011;36795;45.028;38.968;2023-02-28T03:06:14;27.17;;;6.82;;
49384;SDS011;36795;45.028;38.968;2023-02-28T03:09:00;37.92;;;8.43;;
49384;SDS011;36795;45.028;38.968;2023-02-28T03:11:49;25.25;;;6.40;;
49384;SDS011;36795;45.028;38.968;2023-02-28T03:14:49;26.42;;;6.97;;
49384;SDS011;36795;45.028;38.968;2023-02-28T03:23:42;24.58;;;6.00;;
49384;SDS011;36795;45.028;38.968;2023-02-28T03:26:31;25.12;;;7.43;;
49384;SDS011;36795;45.028;38.968;2023-02-28T03:29:28;20.25;;;6.40;;
49384;SDS011;36795;45.028;38.968;2023-02-28T03:32:28;24.23;;;6.90;;
49384;SDS011;36795;45.028;38.968;2023-02-28T03:35:16;24.10;;;7.12;;
49384;SDS011;36795;45.028;38.968;2023-02-28T03:38:13;23.80;;;6.65;;
49384;SDS011;36795;45.028;38.968;2023-02-28T03:41:05;25.30;;;7.12;;
49384;SDS011;36795;45.028;38.968;2023-02-28T03:43:59;23.23;;;6.93;;
49384;SDS011;36795;45.028;38.968;2023-02-28T03:46:53;27.62;;;6.82;;
49384;SDS011;36795;45.028;38.968;2023-02-28T03:49:49;27.15;;;8.27;;
49384;SDS011;36795;45.028;38.968;2023-02-28T03:52:38;24.83;;;7.12;;
49384;SDS011;36795;45.028;38.968;2023-02-28T03:55:30;26.37;;;7.37;;
49384;SDS011;36795;45.028;38.968;2023-02-28T04:01:31;25.27;;;6.97;;
49384;SDS011;36795;45.028;38.968;2023-02-28T04:04:17;31.00;;;7.45;;
49384;SDS011;36795;45.028;38.968;2023-02-28T04:07:05;33.20;;;8.05;;
49384;SDS011;36795;45.028;38.968;2023-02-28T04:09:52;20.25;;;6.35;;
49384;SDS011;36795;45.028;38.968;2023-02-28T04:12:38;21.00;;;6.40;;
49384;SDS011;36795;45.028;38.968;2023-02-28T04:15:24;26.45;;;7.05;;
49384;SDS011;36795;45.028;38.968;2023-02-28T04:18:12;21.52;;;6.15;;
49384;SDS011;36795;45.028;38.968;2023-02-28T04:20:59;23.15;;;6.53;;
49384;SDS011;36795;45.028;38.968;2023-02-28T04:23:46;21.25;;;6.25;;
49384;SDS011;36795;45.028;38.968;2023-02-28T04:26:33;19.58;;;6.22;;
49384;SDS011;36795;45.028;38.968;2023-02-28T04:29:21;37.42;;;7.70;;
49384;SDS011;36795;45.028;38.968;2023-02-28T04:32:07;25.67;;;6.25;;
49384;SDS011;36795;45.028;38.968;2023-02-28T04:34:53;25.33;;;6.82;;
49384;SDS011;36795;45.028;38.968;2023-02-28T04:37:40;24.98;;;6.68;;
49384;SDS011;36795;45.028;38.968;2023-02-28T04:40:26;22.70;;;6.40;;
49384;SDS011;36795;45.028;38.968;2023-02-28T04:43:13;27.17;;;6.62;;
49384;SDS011;36795;45.028;38.968;2023-02-28T04:46:00;25.02;;;6.60;;
49384;SDS011;36795;45.028;38.968;2023-02-28T04:48:47;24.80;;;7.25;;
49384;SDS011;36795;45.028;38.968;2023-02-28T04:51:33;22.52;;;6.82;;
49384;SDS011;36795;45.028;38.968;2023-02-28T04:54:20;27.45;;;7.45;;
49384;SDS011;36795;45.028;38.968;2023-02-28T04:57:06;25.90;;;6.80;;
49384;SDS011;36795;45.028;38.968;2023-02-28T04:59:52;34.47;;;7.30;;
49384;SDS011;36795;45.028;38.968;2023-02-28T05:02:38;30.85;;;8.02;;
49384;SDS011;36795;45.028;38.968;2023-02-28T05:05:25;24.17;;;7.70;;
49384;SDS011;36795;45.028;38.968;2023-02-28T05:08:11;28.73;;;7.12;;
49384;SDS011;36795;45.028;38.968;2023-02-28T05:11:01;30.95;;;8.88;;
49384;SDS011;36795;45.028;38.968;2023-02-28T05:13:47;24.30;;;7.47;;
49384;SDS011;36795;45.028;38.968;2023-02-28T05:16:34;29.23;;;8.23;;
49384;SDS011;36795;45.028;38.968;2023-02-28T05:19:20;31.35;;;8.45;;
49384;SDS011;36795;45.028;38.968;2023-02-28T05:22:10;35.97;;;8.45;;
49384;SDS011;36795;45.028;38.968;2023-02-28T05:24:58;37.63;;;10.15;;
49384;SDS011;36795;45.028;38.968;2023-02-28T05:27:44;68.53;;;11.25;;
49384;SDS011;36795;45.028;38.968;2023-02-28T05:30:30;30.75;;;7.05;;
49384;SDS011;36795;45.028;38.968;2023-02-28T05:33:17;31.48;;;8.90;;
49384;SDS011;36795;45.028;38.968;2023-02-28T05:36:03;35.60;;;8.77;;
49384;SDS011;36795;45.028;38.968;2023-02-28T05:38:50;27.17;;;8.10;;
49384;SDS011;36795;45.028;38.968;2023-02-28T05:41:36;28.65;;;8.00;;
49384;SDS011;36795;45.028;38.968;2023-02-28T05:44:23;29.52;;;7.82;;
49384;SDS011;36795;45.028;38.968;2023-02-28T05:47:09;24.25;;;7.87;;
49384;SDS011;36795;45.028;38.968;2023-02-28T05:49:55;40.75;;;8.70;;
49384;SDS011;36795;45.028;38.968;2023-02-28T05:52:42;34.17;;;8.20;;
49384;SDS011;36795;45.028;38.968;2023-02-28T05:55:32;35.08;;;9.65;;
49384;SDS011;36795;45.028;38.968;2023-02-28T05:58:20;36.53;;;8.80;;
49384;SDS011;36795;45.028;38.968;2023-02-28T06:04:25;28.05;;;6.72;;
49384;SDS011;36795;45.028;38.968;2023-02-28T06:07:11;25.17;;;6.80;;
49384;SDS011;36795;45.028;38.968;2023-02-28T06:09:58;28.87;;;7.22;;
49384;SDS011;36795;45.028;38.968;2023-02-28T06:12:44;24.42;;;6.85;;
49384;SDS011;36795;45.028;38.968;2023-02-28T06:15:30;31.85;;;8.43;;
49384;SDS011;36795;45.028;38.968;2023-02-28T06:18:16;36.60;;;9.77;;
49384;SDS011;36795;45.028;38.968;2023-02-28T06:21:03;44.83;;;11.50;;
49384;SDS011;36795;45.028;38.968;2023-02-28T06:23:49;25.10;;;7.50;;
49384;SDS011;36795;45.028;38.968;2023-02-28T06:26:36;42.92;;;10.18;;
49384;SDS011;36795;45.028;38.968;2023-02-28T06:29:22;33.40;;;9.73;;
49384;SDS011;36795;45.028;38.968;2023-02-28T06:32:09;40.78;;;10.63;;
49384;SDS011;36795;45.028;38.968;2023-02-28T06:34:55;36.17;;;11.15;;
49384;SDS011;36795;45.028;38.968;2023-02-28T06:37:52;35.90;;;11.32;;
49384;SDS011;36795;45.028;38.968;2023-02-28T06:40:38;33.03;;;10.25;;
49384;SDS011;36795;45.028;38.968;2023-02-28T06:43:27;31.98;;;9.63;;
49384;SDS011;36795;45.028;38.968;2023-02-28T06:46:13;32.60;;;9.65;;
49384;SDS011;36795;45.028;38.968;2023-02-28T06:48:59;28.52;;;9.43;;
49384;SDS011;36795;45.028;38.968;2023-02-28T06:51:45;34.88;;;10.07;;
49384;SDS011;36795;45.028;38.968;2023-02-28T06:54:32;30.08;;;9.38;;
49384;SDS011;36795;45.028;38.968;2023-02-28T06:57:18;29.58;;;10.50;;
49384;SDS011;36795;45.028;38.968;2023-02-28T07:00:11;31.40;;;9.82;;
49384;SDS011;36795;45.028;38.968;2023-02-28T07:03:04;30.27;;;9.32;;
49384;SDS011;36795;45.028;38.968;2023-02-28T07:05:53;29.08;;;9.15;;
49384;SDS011;36795;45.028;38.968;2023-02-28T07:08:40;34.20;;;9.82;;
49384;SDS011;36795;45.028;38.968;2023-02-28T07:11:27;26.77;;;8.18;;
49384;SDS011;36795;45.028;38.968;2023-02-28T07:14:14;31.42;;;9.38;;
49384;SDS011;36795;45.028;38.968;2023-02-28T07:17:00;32.50;;;9.07;;
49384;SDS011;36795;45.028;38.968;2023-02-28T07:19:46;29.90;;;9.77;;
49384;SDS011;36795;45.028;38.968;2023-02-28T07:22:32;31.65;;;9.15;;
49384;SDS011;36795;45.028;38.968;2023-02-28T07:25:19;29.65;;;9.82;;
49384;SDS011;36795;45.028;38.968;2023-02-28T07:28:06;31.77;;;9.57;;
49384;SDS011;36795;45.028;38.968;2023-02-28T07:30:52;27.67;;;9.50;;
49384;SDS011;36795;45.028;38.968;2023-02-28T07:33:38;37.42;;;9.80;;
49384;SDS011;36795;45.028;38.968;2023-02-28T07:36:24;32.70;;;9.13;;
49384;SDS011;36795;45.028;38.968;2023-02-28T07:39:10;35.17;;;11.43;;
49384;SDS011;36795;45.028;38.968;2023-02-28T07:41:56;29.77;;;8.68;;
49384;SDS011;36795;45.028;38.968;2023-02-28T07:44:44;31.48;;;8.60;;
49384;SDS011;36795;45.028;38.968;2023-02-28T07:47:30;36.25;;;9.75;;
49384;SDS011;36795;45.028;38.968;2023-02-28T07:50:17;29.25;;;8.63;;
49384;SDS011;36795;45.028;38.968;2023-02-28T07:53:03;31.10;;;10.10;;
49384;SDS011;36795;45.028;38.968;2023-02-28T07:55:49;29.60;;;8.70;;
49384;SDS011;36795;45.028;38.968;2023-02-28T07:58:36;27.92;;;8.63;;
49384;SDS011;36795;45.028;38.968;2023-02-28T08:01:25;33.25;;;9.32;;
49384;SDS011;36795;45.028;38.968;2023-02-28T08:04:11;30.25;;;9.35;;
49384;SDS011;36795;45.028;38.968;2023-02-28T08:06:57;30.30;;;8.20;;
49384;SDS011;36795;45.028;38.968;2023-02-28T08:09:44;26.77;;;9.43;;
49384;SDS011;36795;45.028;38.968;2023-02-28T08:12:30;22.37;;;7.80;;
49384;SDS011;36795;45.028;38.968;2023-02-28T08:15:19;31.45;;;8.55;;
49384;SDS011;36795;45.028;38.968;2023-02-28T08:18:05;26.73;;;8.90;;
49384;SDS011;36795;45.028;38.968;2023-02-28T08:20:52;27.90;;;8.90;;
49384;SDS011;36795;45.028;38.968;2023-02-28T08:23:38;35.25;;;9.82;;
49384;SDS011;36795;45.028;38.968;2023-02-28T08:26:27;30.40;;;10.30;;
49384;SDS011;36795;45.028;38.968;2023-02-28T08:29:13;29.27;;;9.25;;
49384;SDS011;36795;45.028;38.968;2023-02-28T08:31:59;30.02;;;9.55;;
49384;SDS011;36795;45.028;38.968;2023-02-28T08:34:46;27.40;;;9.32;;
49384;SDS011;36795;45.028;38.968;2023-02-28T08:37:32;30.55;;;10.57;;
49384;SDS011;36795;45.028;38.968;2023-02-28T08:40:18;28.00;;;10.10;;
49384;SDS011;36795;45.028;38.968;2023-02-28T08:43:05;27.40;;;10.10;;
49384;SDS011;36795;45.028;38.968;2023-02-28T08:45:51;32.50;;;11.00;;
49384;SDS011;36795;45.028;38.968;2023-02-28T08:48:38;35.10;;;11.35;;
49384;SDS011;36795;45.028;38.968;2023-02-28T08:51:24;30.60;;;11.05;;
49384;SDS011;36795;45.028;38.968;2023-02-28T08:54:13;32.92;;;12.50;;
49384;SDS011;36795;45.028;38.968;2023-02-28T08:57:04;37.83;;;11.35;;
49384;SDS011;36795;45.028;38.968;2023-02-28T08:59:50;34.08;;;13.48;;
49384;SDS011;36795;45.028;38.968;2023-02-28T09:02:39;38.05;;;13.70;;
49384;SDS011;36795;45.028;38.968;2023-02-28T09:05:25;33.40;;;12.75;;
49384;SDS011;36795;45.028;38.968;2023-02-28T09:08:16;37.90;;;13.75;;
49384;SDS011;36795;45.028;38.968;2023-02-28T09:11:03;30.60;;;12.32;;
49384;SDS011;36795;45.028;38.968;2023-02-28T09:13:49;34.22;;;13.05;;
49384;SDS011;36795;45.028;38.968;2023-02-28T09:16:35;36.80;;;16.85;;
49384;SDS011;36795;45.028;38.968;2023-02-28T09:19:21;32.58;;;12.73;;
49384;SDS011;36795;45.028;38.968;2023-02-28T09:22:08;33.83;;;13.43;;
49384;SDS011;36795;45.028;38.968;2023-02-28T09:24:54;30.70;;;12.10;;
49384;SDS011;36795;45.028;38.968;2023-02-28T09:27:40;28.08;;;10.88;;
49384;SDS011;36795;45.028;38.968;2023-02-28T09:30:26;34.55;;;11.90;;
49384;SDS011;36795;45.028;38.968;2023-02-28T09:33:19;29.83;;;10.82;;
49384;SDS011;36795;45.028;38.968;2023-02-28T09:36:08;32.90;;;13.23;;
49384;SDS011;36795;45.028;38.968;2023-02-28T09:38:55;50.22;;;17.75;;
49384;SDS011;36795;45.028;38.968;2023-02-28T09:41:43;30.42;;;11.65;;
49384;SDS011;36795;45.028;38.968;2023-02-28T09:44:36;29.67;;;11.18;;
49384;SDS011;36795;45.028;38.968;2023-02-28T09:47:36;27.90;;;11.50;;
49384;SDS011;36795;45.028;38.968;2023-02-28T09:53:28;42.53;;;13.30;;
49384;SDS011;36795;45.028;38.968;2023-02-28T09:56:36;31.77;;;11.88;;
49384;SDS011;36795;45.028;38.968;2023-02-28T10:05:23;40.00;;;13.07;;
49384;SDS011;36795;45.028;38.968;2023-02-28T10:08:12;28.67;;;12.80;;
49384;SDS011;36795;45.028;38.968;2023-02-28T10:11:05;31.48;;;13.88;;
49384;SDS011;36795;45.028;38.968;2023-02-28T10:13:54;28.50;;;13.00;;
49384;SDS011;36795;45.028;38.968;2023-02-28T10:20:02;28.02;;;13.32;;
49384;SDS011;36795;45.028;38.968;2023-02-28T10:22:53;29.15;;;12.10;;
49384;SDS011;36795;45.028;38.968;2023-02-28T10:25:43;33.35;;;13.20;;
49384;SDS011;36795;45.028;38.968;2023-02-28T10:28:34;28.52;;;13.18;;
49384;SDS011;36795;45.028;38.968;2023-02-28T10:31:20;33.35;;;16.27;;
49384;SDS011;36795;45.028;38.968;2023-02-28T10:34:07;36.20;;;17.75;;
49384;SDS011;36795;45.028;38.968;2023-02-28T10:36:53;30.73;;;16.27;;
49384;SDS011;36795;45.028;38.968;2023-02-28T10:39:41;35.08;;;15.77;;
49384;SDS011;36795;45.028;38.968;2023-02-28T10:42:29;31.62;;;16.87;;
49384;SDS011;36795;45.028;38.968;2023-02-28T10:45:16;37.50;;;17.00;;
49384;SDS011;36795;45.028;38.968;2023-02-28T10:50:58;31.35;;;15.10;;
49384;SDS011;36795;45.028;38.968;2023-02-28T10:56:34;34.80;;;14.70;;
49384;SDS011;36795;45.028;38.968;2023-02-28T10:59:30;34.63;;;14.90;;
49384;SDS011;36795;45.028;38.968;2023-02-28T11:02:36;29.65;;;13.85;;
49384;SDS011;36795;45.028;38.968;2023-02-28T11:08:17;32.05;;;15.13;;
49384;SDS011;36795;45.028;38.968;2023-02-28T11:11:04;36.38;;;15.68;;
49384;SDS011;36795;45.028;38.968;2023-02-28T11:14:02;32.45;;;15.07;;
49384;SDS011;36795;45.028;38.968;2023-02-28T11:16:49;31.70;;;14.73;;
49384;SDS011;36795;45.028;38.968;2023-02-28T11:19:38;35.75;;;16.02;;
49384;SDS011;36795;45.028;38.968;2023-02-28T11:22:26;34.10;;;15.52;;
49384;SDS011;36795;45.028;38.968;2023-02-28T11:25:19;50.88;;;17.23;;
49384;SDS011;36795;45.028;38.968;2023-02-28T11:28:22;34.03;;;16.17;;
49384;SDS011;36795;45.028;38.968;2023-02-28T11:33:58;35.45;;;16.87;;
49384;SDS011;36795;45.028;38.968;2023-02-28T11:36:45;33.13;;;16.75;;
49384;SDS011;36795;45.028;38.968;2023-02-28T11:39:32;30.88;;;15.38;;
49384;SDS011;36795;45.028;38.968;2023-02-28T11:42:36;36.88;;;16.50;;
49384;SDS011;36795;45.028;38.968;2023-02-28T11:45:30;31.45;;;15.52;;
49384;SDS011;36795;45.028;38.968;2023-02-28T11:48:20;32.50;;;15.02;;
49384;SDS011;36795;45.028;38.968;2023-02-28T11:51:15;32.33;;;15.30;;
49384;SDS011;36795;45.028;38.968;2023-02-28T11:54:08;35.85;;;15.18;;
49384;SDS011;36795;45.028;38.968;2023-02-28T11:57:00;31.87;;;16.40;;
49384;SDS011;36795;45.028;38.968;2023-02-28T12:26:18;32.88;;;15.45;;
49384;SDS011;36795;45.028;38.968;2023-02-28T12:29:19;30.85;;;14.95;;
49384;SDS011;36795;45.028;38.968;2023-02-28T12:32:09;30.73;;;13.27;;
49384;SDS011;36795;45.028;38.968;2023-02-28T12:35:04;32.50;;;14.35;;
49384;SDS011;36795;45.028;38.968;2023-02-28T12:37:58;30.62;;;15.25;;
49384;SDS011;36795;45.028;38.968;2023-02-28T12:41:05;30.55;;;13.25;;
49384;SDS011;36795;45.028;38.968;2023-02-28T12:44:00;31.25;;;13.38;;
49384;SDS011;36795;45.028;38.968;2023-02-28T12:46:48;34.63;;;14.25;;
49384;SDS011;36795;45.028;38.968;2023-02-28T12:53:15;32.00;;;14.95;;
49384;SDS011;36795;45.028;38.968;2023-02-28T12:58:43;29.30;;;13.50;;
49384;SDS011;36795;45.028;38.968;2023-02-28T13:10:40;30.67;;;12.30;;
49384;SDS011;36795;45.028;38.968;2023-02-28T13:13:27;31.85;;;13.62;;
49384;SDS011;36795;45.028;38.968;2023-02-28T13:16:17;30.70;;;13.60;;
49384;SDS011;36795;45.028;38.968;2023-02-28T13:19:09;35.47;;;14.45;;
49384;SDS011;36795;45.028;38.968;2023-02-28T13:21:57;36.85;;;16.20;;
49384;SDS011;36795;45.028;38.968;2023-02-28T13:27:34;33.70;;;16.50;;
49384;SDS011;36795;45.028;38.968;2023-02-28T13:39:44;37.40;;;17.50;;
49384;SDS011;36795;45.028;38.968;2023-02-28T13:42:23;39.95;;;17.87;;
49384;SDS011;36795;45.028;38.968;2023-02-28T13:48:03;40.45;;;17.30;;
49384;SDS011;36795;45.028;38.968;2023-02-28T13:50:50;40.05;;;19.15;;
49384;SDS011;36795;45.028;38.968;2023-02-28T13:53:42;39.05;;;19.40;;
49384;SDS011;36795;45.028;38.968;2023-02-28T13:56:35;48.72;;;21.67;;
49384;SDS011;36795;45.028;38.968;2023-02-28T13:59:47;42.95;;;18.75;;
49384;SDS011;36795;45.028;38.968;2023-02-28T14:05:24;41.75;;;19.95;;
49384;SDS011;36795;45.028;38.968;2023-02-28T14:08:15;41.55;;;20.67;;
49384;SDS011;36795;45.028;38.968;2023-02-28T14:11:04;45.63;;;21.37;;
49384;SDS011;36795;45.028;38.968;2023-02-28T14:13:51;48.05;;;23.20;;
49384;SDS011;36795;45.028;38.968;2023-02-28T14:16:44;44.88;;;21.42;;
49384;SDS011;36795;45.028;38.968;2023-02-28T14:19:31;46.47;;;25.42;;
49384;SDS011;36795;45.028;38.968;2023-02-28T14:36:57;47.42;;;22.00;;
49384;SDS011;36795;45.028;38.968;2023-02-28T14:39:44;44.03;;;20.95;;
49384;SDS011;36795;45.028;38.968;2023-02-28T14:42:33;39.53;;;21.05;;
49384;SDS011;36795;45.028;38.968;2023-02-28T14:45:21;42.33;;;21.50;;
49384;SDS011;36795;45.028;38.968;2023-02-28T14:48:08;47.47;;;20.05;;
49384;SDS011;36795;45.028;38.968;2023-02-28T14:50:56;43.65;;;20.55;;
49384;SDS011;36795;45.028;38.968;2023-02-28T14:53:42;44.25;;;22.33;;
49384;SDS011;36795;45.028;38.968;2023-02-28T14:56:32;48.75;;;22.95;;
49384;SDS011;36795;45.028;38.968;2023-02-28T14:59:24;44.17;;;21.90;;
49384;SDS011;36795;45.028;38.968;2023-02-28T15:11:19;49.03;;;21.87;;
49384;SDS011;36795;45.028;38.968;2023-02-28T15:14:12;49.08;;;24.52;;
49384;SDS011;36795;45.028;38.968;2023-02-28T15:17:00;52.15;;;23.45;;
49384;SDS011;36795;45.028;38.968;2023-02-28T15:19:48;41.08;;;20.05;;
49384;SDS011;36795;45.028;38.968;2023-02-28T15:22:36;41.70;;;20.83;;
49384;SDS011;36795;45.028;38.968;2023-02-28T15:25:23;41.83;;;18.77;;
49384;SDS011;36795;45.028;38.968;2023-02-28T15:28:11;39.75;;;19.35;;
49384;SDS011;36795;45.028;38.968;2023-02-28T15:31:01;43.35;;;19.48;;
49384;SDS011;36795;45.028;38.968;2023-02-28T15:33:54;43.97;;;19.55;;
49384;SDS011;36795;45.028;38.968;2023-02-28T15:36:40;44.78;;;19.33;;
49384;SDS011;36795;45.028;38.968;2023-02-28T15:39:27;44.30;;;20.83;;
49384;SDS011;36795;45.028;38.968;2023-02-28T15:42:19;39.15;;;17.75;;
49384;SDS011;36795;45.028;38.968;2023-02-28T15:45:05;51.80;;;20.37;;
49384;SDS011;36795;45.028;38.968;2023-02-28T15:47:51;45.40;;;20.88;;
49384;SDS011;36795;45.028;38.968;2023-02-28T15:50:38;39.85;;;20.00;;
49384;SDS011;36795;45.028;38.968;2023-02-28T15:53:28;45.90;;;19.02;;
49384;SDS011;36795;45.028;38.968;2023-02-28T15:56:38;42.70;;;19.98;;
49384;SDS011;36795;45.028;38.968;2023-02-28T15:59:22;43.75;;;20.70;;
49384;SDS011;36795;45.028;38.968;2023-02-28T16:07:42;53.87;;;26.30;;
49384;SDS011;36795;45.028;38.968;2023-02-28T16:10:28;44.33;;;22.08;;
49384;SDS011;36795;45.028;38.968;2023-02-28T16:13:15;41.05;;;19.08;;
49384;SDS011;36795;45.028;38.968;2023-02-28T16:16:02;41.95;;;18.83;;
49384;SDS011;36795;45.028;38.968;2023-02-28T16:18:48;37.65;;;18.08;;
49384;SDS011;36795;45.028;38.968;2023-02-28T16:21:38;43.35;;;17.35;;
49384;SDS011;36795;45.028;38.968;2023-02-28T16:24:27;38.55;;;17.37;;
49384;SDS011;36795;45.028;38.968;2023-02-28T16:27:35;43.87;;;19.80;;
49384;SDS011;36795;45.028;38.968;2023-02-28T16:30:20;161.98;;;28.70;;
49384;SDS011;36795;45.028;38.968;2023-02-28T16:33:07;48.17;;;18.40;;
49384;SDS011;36795;45.028;38.968;2023-02-28T16:35:54;35.80;;;17.67;;
49384;SDS011;36795;45.028;38.968;2023-02-28T16:38:40;39.25;;;17.83;;
49384;SDS011;36795;45.028;38.968;2023-02-28T16:41:27;42.35;;;20.08;;
49384;SDS011;36795;45.028;38.968;2023-02-28T16:44:57;49.70;;;21.58;;
49384;SDS011;36795;45.028;38.968;2023-02-28T16:47:24;48.10;;;23.77;;
49384;SDS011;36795;45.028;38.968;2023-02-28T16:50:15;40.92;;;21.37;;
49384;SDS011;36795;45.028;38.968;2023-02-28T16:53:02;39.10;;;18.77;;
49384;SDS011;36795;45.028;38.968;2023-02-28T16:55:49;39.22;;;19.58;;
49384;SDS011;36795;45.028;38.968;2023-02-28T16:58:35;46.63;;;22.42;;
49384;SDS011;36795;45.028;38.968;2023-02-28T17:01:22;52.22;;;27.13;;
49384;SDS011;36795;45.028;38.968;2023-02-28T17:04:08;45.78;;;22.27;;
49384;SDS011;36795;45.028;38.968;2023-02-28T17:06:56;49.20;;;27.23;;
49384;SDS011;36795;45.028;38.968;2023-02-28T17:09:44;44.67;;;21.00;;
49384;SDS011;36795;45.028;38.968;2023-02-28T17:12:30;38.10;;;18.25;;
49384;SDS011;36795;45.028;38.968;2023-02-28T17:15:17;39.00;;;17.45;;
49384;SDS011;36795;45.028;38.968;2023-02-28T17:18:04;37.13;;;16.20;;
49384;SDS011;36795;45.028;38.968;2023-02-28T17:20:52;35.15;;;16.10;;
49384;SDS011;36795;45.028;38.968;2023-02-28T17:23:43;33.28;;;15.45;;
49384;SDS011;36795;45.028;38.968;2023-02-28T17:26:29;33.78;;;16.23;;
49384;SDS011;36795;45.028;38.968;2023-02-28T17:29:17;36.00;;;15.82;;
49384;SDS011;36795;45.028;38.968;2023-02-28T17:32:08;34.78;;;13.62;;
49384;SDS011;36795;45.028;38.968;2023-02-28T17:34:54;30.05;;;11.38;;
49384;SDS011;36795;45.028;38.968;2023-02-28T17:37:41;28.87;;;11.32;;
49384;SDS011;36795;45.028;38.968;2023-02-28T17:40:30;30.20;;;12.15;;
49384;SDS011;36795;45.028;38.968;2023-02-28T17:43:18;27.80;;;10.52;;
49384;SDS011;36795;45.028;38.968;2023-02-28T17:46:25;28.87;;;12.85;;
49384;SDS011;36795;45.028;38.968;2023-02-28T17:49:13;29.20;;;11.48;;
49384;SDS011;36795;45.028;38.968;2023-02-28T17:52:00;31.75;;;12.68;;
49384;SDS011;36795;45.028;38.968;2023-02-28T17:54:46;28.75;;;11.73;;
49384;SDS011;36795;45.028;38.968;2023-02-28T17:57:33;30.08;;;11.63;;
49384;SDS011;36795;45.028;38.968;2023-02-28T18:00:19;34.20;;;12.23;;
49384;SDS011;36795;45.028;38.968;2023-02-28T18:03:09;31.55;;;12.55;;
49384;SDS011;36795;45.028;38.968;2023-02-28T18:05:57;32.00;;;13.10;;
49384;SDS011;36795;45.028;38.968;2023-02-28T18:08:44;32.72;;;13.52;;
49384;SDS011;36795;45.028;38.968;2023-02-28T18:11:30;35.10;;;14.75;;
49384;SDS011;36795;45.028;38.968;2023-02-28T18:14:28;62.95;;;36.38;;
49384;SDS011;36795;45.028;38.968;2023-02-28T18:17:15;34.78;;;15.68;;
49384;SDS011;36795;45.028;38.968;2023-02-28T18:20:01;43.38;;;16.33;;
49384;SDS011;36795;45.028;38.968;2023-02-28T18:22:49;43.33;;;16.90;;
49384;SDS011;36795;45.028;38.968;2023-02-28T18:25:35;37.53;;;15.52;;
49384;SDS011;36795;45.028;38.968;2023-02-28T18:28:22;34.60;;;14.82;;
49384;SDS011;36795;45.028;38.968;2023-02-28T18:31:09;32.60;;;13.07;;
49384;SDS011;36795;45.028;38.968;2023-02-28T18:33:56;33.03;;;13.85;;
49384;SDS011;36795;45.028;38.968;2023-02-28T18:36:43;56.53;;;36.65;;
49384;SDS011;36795;45.028;38.968;2023-02-28T18:39:30;35.08;;;14.73;;
49384;SDS011;36795;45.028;38.968;2023-02-28T18:42:17;35.15;;;15.95;;
49384;SDS011;36795;45.028;38.968;2023-02-28T18:45:03;34.97;;;15.93;;